Time;durP1;ratioP1;P1;durP2;ratioP2;P2;SDS_P1;SDS_P2;PMS_P1;PMS_P2;Temp;Humidity;BMP_temperature;BMP_pressure;BME280_temperature;BME280_humidity;BME280_pressure;Samples;Min_cycle;Max_cycle;Signal;HPM_P1;HPM_P2
2022/08/28 00:00:16;;;;;;;6.37;4.47;;;;;;;18.52;100.00;99061.09;4980739;28;20231;-83
2022/08/28 00:02:44;;;;;;;4.50;3.40;;;;;;;18.52;100.00;99053.75;4977134;28;20235;-85
2022/08/28 00:05:12;;;;;;;5.53;3.57;;;;;;;18.53;100.00;99049.13;4997058;28;20321;-84
2022/08/28 00:07:39;;;;;;;3.80;3.40;;;;;;;18.53;100.00;99043.69;5000650;28;20242;-84
2022/08/28 00:10:15;;;;;;;4.20;3.30;;;;;;;18.51;100.00;99032.34;4998758;28;20413;-83
2022/08/28 00:12:43;;;;;;;4.97;3.53;;;;;;;18.53;100.00;99041.81;4999111;28;20751;-83
2022/08/28 00:15:14;;;;;;;4.87;3.50;;;;;;;18.58;100.00;99039.06;4998073;28;20270;-84
2022/08/28 00:17:41;;;;;;;3.50;3.10;;;;;;;18.59;100.00;99034.44;4994053;28;20266;-84
2022/08/28 00:20:09;;;;;;;3.60;2.70;;;;;;;18.59;100.00;99032.56;5002396;28;20326;-83
2022/08/28 00:22:37;;;;;;;3.47;3.07;;;;;;;18.60;100.00;99036.06;4978842;28;20614;-84
2022/08/28 00:25:05;;;;;;;4.93;3.40;;;;;;;18.49;100.00;99036.13;4990970;28;20283;-83
2022/08/28 00:30:30;;;;;;;3.70;3.23;;;;;;;18.40;100.00;99042.47;4980228;28;20238;-83
2022/08/28 00:33:00;;;;;;;5.40;3.67;;;;;;;18.40;100.00;99039.75;4974392;28;20259;-83
2022/08/28 00:35:27;;;;;;;4.43;3.60;;;;;;;18.37;100.00;99043.03;4999888;28;20239;-84
2022/08/28 00:37:54;;;;;;;4.33;3.47;;;;;;;18.36;100.00;99036.00;4991877;28;20312;-84
2022/08/28 00:40:25;;;;;;;4.73;3.33;;;;;;;18.35;100.00;99031.66;4995003;28;20235;-84
2022/08/28 00:43:00;;;;;;;6.67;3.30;;;;;;;18.29;100.00;99027.38;4995028;28;20644;-84
2022/08/28 00:45:27;;;;;;;5.27;3.50;;;;;;;18.26;100.00;99023.31;4980536;28;20687;-85
2022/08/28 00:47:53;;;;;;;4.67;3.40;;;;;;;18.23;100.00;99021.19;4976438;28;20351;-84
2022/08/28 00:50:22;;;;;;;4.50;3.67;;;;;;;18.23;100.00;99012.25;5003604;28;20297;-85
2022/08/28 00:52:57;;;;;;;5.03;3.33;;;;;;;18.25;100.00;99013.56;4977881;28;20254;-86
2022/08/28 00:55:25;;;;;;;5.00;3.57;;;;;;;18.26;100.00;99014.38;4962561;28;20241;-86
2022/08/28 00:57:55;;;;;;;4.10;3.53;;;;;;;18.27;100.00;99014.09;4972105;28;20226;-85
2022/08/28 01:00:35;;;;;;;3.67;3.33;;;;;;;18.29;100.00;99005.69;4977987;28;21012;-86
2022/08/28 01:03:04;;;;;;;5.03;3.57;;;;;;;18.30;100.00;99002.69;4961778;28;20247;-86
2022/08/28 01:05:33;;;;;;;4.73;3.47;;;;;;;18.30;100.00;99002.69;4968929;28;20298;-83
2022/08/28 01:07:59;;;;;;;5.67;3.70;;;;;;;18.26;100.00;98996.22;4982843;28;20261;-84
2022/08/28 01:10:28;;;;;;;4.67;3.70;;;;;;;18.26;100.00;98998.13;4997818;28;20321;-85
2022/08/28 01:12:56;;;;;;;3.77;3.40;;;;;;;18.25;100.00;98994.59;4983074;28;20235;-83
2022/08/28 01:15:29;;;;;;;4.93;3.33;;;;;;;18.22;100.00;98992.47;4985360;28;20317;-83
2022/08/28 01:18:05;;;;;;;4.13;3.53;;;;;;;18.21;100.00;98987.31;4991533;28;20231;-83
2022/08/28 01:20:36;;;;;;;4.00;3.47;;;;;;;18.22;100.00;98987.03;4974900;28;20614;-84
2022/08/28 01:23:14;;;;;;;3.63;3.33;;;;;;;18.22;100.00;98984.31;4979096;28;20235;-83
2022/08/28 01:25:41;;;;;;;5.50;3.97;;;;;;;18.19;100.00;98984.91;4976288;28;20250;-85
2022/08/28 01:28:11;;;;;;;7.83;3.97;;;;;;;18.18;100.00;98974.34;4976169;28;20330;-85
2022/08/28 01:30:44;;;;;;;6.40;4.00;;;;;;;18.19;100.00;98978.66;4964827;28;20289;-85
2022/08/28 01:33:13;;;;;;;7.33;4.50;;;;;;;18.17;100.00;98972.72;4989925;28;20226;-84
2022/08/28 01:35:46;;;;;;;4.73;4.00;;;;;;;18.18;100.00;98969.72;4975048;28;20244;-84
2022/08/28 01:38:14;;;;;;;5.60;4.20;;;;;;;18.17;100.00;98970.00;4993037;28;20246;-84
2022/08/28 01:40:48;;;;;;;6.33;4.23;;;;;;;18.18;100.00;98979.75;4976918;28;20237;-84
2022/08/28 01:43:18;;;;;;;4.67;4.20;;;;;;;18.14;100.00;98974.09;4981992;28;20239;-85
2022/08/28 01:45:54;;;;;;;5.83;4.67;;;;;;;18.11;100.00;98974.66;4976597;28;20234;-85
2022/08/28 01:48:24;;;;;;;5.07;4.40;;;;;;;18.16;100.00;98977.31;4986965;28;20320;-85
2022/08/28 01:50:51;;;;;;;4.97;4.57;;;;;;;18.14;100.00;98973.28;4984128;28;20335;-82
2022/08/28 01:53:22;;;;;;;7.23;4.33;;;;;;;18.12;100.00;98978.19;4992339;28;20247;-84
2022/08/28 01:55:52;;;;;;;5.30;4.80;;;;;;;18.12;100.00;98972.75;4990748;28;20973;-82
2022/08/28 01:58:19;;;;;;;5.63;4.70;;;;;;;18.14;100.00;98970.56;4971966;28;20242;-82
2022/08/28 02:00:46;;;;;;;5.70;4.50;;;;;;;18.15;100.00;98970.28;4992666;28;20330;-81
2022/08/28 02:03:13;;;;;;;5.13;4.70;;;;;;;18.17;100.00;98975.41;4992462;28;20327;-87
2022/08/28 02:05:40;;;;;;;5.03;4.43;;;;;;;18.19;100.00;98975.97;4996653;28;20305;-88
2022/08/28 02:08:07;;;;;;;5.70;5.10;;;;;;;18.19;100.00;98976.78;4984186;28;20913;-88
2022/08/28 02:10:36;;;;;;;4.73;4.33;;;;;;;18.17;100.00;98973.53;4947313;28;22236;-88
2022/08/28 02:13:04;;;;;;;4.97;4.50;;;;;;;18.20;100.00;98972.94;4944148;28;20322;-88
2022/08/28 02:15:33;;;;;;;5.30;4.80;;;;;;;18.20;100.00;98974.84;4968466;28;20287;-89
2022/08/28 02:18:00;;;;;;;5.20;4.70;;;;;;;18.20;100.00;98975.66;4966572;28;20229;-87
2022/08/28 02:20:27;;;;;;;5.57;5.07;;;;;;;18.21;100.00;98971.84;4993436;28;20315;-87
2022/08/28 02:22:56;;;;;;;6.07;4.93;;;;;;;18.24;100.00;98967.78;4998601;28;20241;-86
2022/08/28 02:25:23;;;;;;;5.00;4.60;;;;;;;18.23;100.00;98969.69;4949600;28;20662;-87
2022/08/28 02:27:50;;;;;;;5.30;4.80;;;;;;;18.25;100.00;98970.19;4945466;28;20329;-87
2022/08/28 02:30:17;;;;;;;5.43;4.87;;;;;;;18.26;100.00;98962.88;4998836;28;20316;-87
2022/08/28 02:32:45;;;;;;;5.07;4.57;;;;;;;18.25;100.00;98964.75;4968543;28;20240;-87
2022/08/28 02:35:14;;;;;;;5.77;4.53;;;;;;;18.26;100.00;98962.88;4959323;28;20326;-86
2022/08/28 02:37:43;;;;;;;5.20;4.70;;;;;;;18.28;100.00;98957.97;4983615;28;20238;-86
2022/08/28 02:40:12;;;;;;;5.07;4.63;;;;;;;18.30;100.00;98967.44;4983403;28;20300;-87
2022/08/28 02:42:40;;;;;;;5.03;4.53;;;;;;;18.31;100.00;98969.06;4988924;28;20240;-84
2022/08/28 02:45:10;;;;;;;5.00;4.50;;;;;;;18.32;100.00;98959.03;4982703;28;20792;-85
2022/08/28 02:47:38;;;;;;;4.97;4.17;;;;;;;18.31;100.00;98963.63;4996689;28;20292;-84
2022/08/28 02:50:06;;;;;;;4.77;4.37;;;;;;;18.31;100.00;98966.34;4996501;28;20294;-85
2022/08/28 02:52:36;;;;;;;5.60;4.40;;;;;;;18.30;100.00;98958.47;4972784;28;20246;-85
2022/08/28 02:55:08;;;;;;;5.03;4.60;;;;;;;18.29;100.00;98957.66;4959213;28;20312;-86
2022/08/28 02:57:34;;;;;;;6.93;4.60;;;;;;;18.25;100.00;98959.34;4957918;28;20244;-86
2022/08/28 03:00:04;;;;;;;6.23;4.10;;;;;;;18.23;100.00;98955.31;4991363;28;20241;-85
2022/08/28 03:02:31;;;;;;;6.27;4.77;;;;;;;18.21;100.00;98954.78;4976647;28;20305;-86
2022/08/28 03:04:59;;;;;;;5.17;4.67;;;;;;;18.18;100.00;98958.88;4959525;28;20248;-86
2022/08/28 03:07:27;;;;;;;5.60;4.50;;;;;;;18.20;100.00;98967.53;4975087;28;20321;-85
2022/08/28 03:09:54;;;;;;;4.53;4.13;;;;;;;18.18;100.00;98972.44;4995374;28;20294;-85
2022/08/28 03:12:23;;;;;;;4.63;4.23;;;;;;;18.18;100.00;98966.19;4990741;28;20250;-86
2022/08/28 03:14:52;;;;;;;5.10;4.67;;;;;;;18.16;100.00;98969.19;4995518;28;20233;-85
2022/08/28 03:17:20;;;;;;;4.90;4.50;;;;;;;18.15;100.00;98970.28;4995740;28;20319;-85
2022/08/28 03:19:48;;;;;;;5.60;4.67;;;;;;;18.16;100.00;98974.59;4974315;28;20243;-84
2022/08/28 03:22:17;;;;;;;4.73;4.33;;;;;;;18.18;100.00;98977.84;4959221;28;20239;-83
2022/08/28 03:24:44;;;;;;;5.50;4.53;;;;;;;18.20;100.00;98978.38;4980333;28;20280;-85
2022/08/28 03:27:10;;;;;;;5.10;4.60;;;;;;;18.20;100.00;98974.84;4983149;28;20261;-86
2022/08/28 03:29:37;;;;;;;4.63;4.23;;;;;;;18.17;100.00;98968.09;5001670;28;20238;-86
2022/08/28 03:32:04;;;;;;;5.00;4.50;;;;;;;18.18;100.00;98977.84;4988204;28;20325;-84
2022/08/28 03:34:32;;;;;;;5.03;4.63;;;;;;;18.15;100.00;98975.69;4965674;28;20321;-86
2022/08/28 03:37:00;;;;;;;5.40;4.90;;;;;;;18.15;100.00;98980.34;4984986;28;20318;-85
2022/08/28 03:39:26;;;;;;;5.10;4.63;;;;;;;18.13;100.00;98979.78;5004726;28;20270;-85
2022/08/28 03:41:53;;;;;;;5.43;4.93;;;;;;;18.08;100.00;98972.53;5002181;28;20564;-84
2022/08/28 03:44:20;;;;;;;6.10;4.80;;;;;;;18.08;100.00;98977.13;5004982;28;20246;-84
2022/08/28 03:46:47;;;;;;;5.53;5.03;;;;;;;18.06;100.00;98968.50;5000186;28;20243;-84
2022/08/28 03:49:14;;;;;;;5.20;4.80;;;;;;;18.08;100.00;98966.28;4978712;28;20242;-84
2022/08/28 03:51:41;;;;;;;5.43;4.83;;;;;;;18.04;100.00;98968.75;5000809;28;20264;-84
2022/08/28 03:54:08;;;;;;;5.63;4.63;;;;;;;17.98;100.00;98968.00;5003821;28;20673;-85
2022/08/28 03:56:35;;;;;;;5.10;4.63;;;;;;;17.99;100.00;98975.03;4999754;28;20352;-84
2022/08/28 03:59:03;;;;;;;5.83;5.23;;;;;;;17.99;100.00;98969.63;4984185;28;20335;-86
2022/08/28 04:01:29;;;;;;;5.77;5.27;;;;;;;17.98;100.00;98969.88;4971967;28;20304;-85
2022/08/28 04:03:56;;;;;;;5.50;5.00;;;;;;;17.95;100.00;98970.47;4952145;28;20229;-86
2022/08/28 04:06:23;;;;;;;5.67;5.17;;;;;;;17.93;100.00;98972.63;4984266;28;20230;-86
2022/08/28 04:08:50;;;;;;;5.53;5.03;;;;;;;17.93;100.00;98969.94;4993820;28;20324;-86
2022/08/28 04:11:17;;;;;;;6.40;5.30;;;;;;;17.90;100.00;98971.31;4968160;28;20234;-84
2022/08/28 04:13:44;;;;;;;5.87;5.27;;;;;;;17.96;100.00;98980.22;4982424;28;20756;-86
2022/08/28 04:16:15;;;;;;;5.60;5.10;;;;;;;18.03;100.00;98977.97;5006585;28;20656;-85
2022/08/28 04:18:42;;;;;;;6.03;5.07;;;;;;;18.11;100.00;98971.13;4980855;28;20330;-85
2022/08/28 04:21:13;;;;;;;5.63;5.13;;;;;;;18.16;100.00;98980.03;4979108;28;20313;-87
2022/08/28 04:23:42;;;;;;;5.33;4.83;;;;;;;18.21;100.00;98984.59;4971691;28;20231;-85
2022/08/28 04:26:11;;;;;;;5.90;5.33;;;;;;;18.28;100.00;98985.09;4999765;28;20329;-84
2022/08/28 04:28:38;;;;;;;6.20;5.60;;;;;;;18.27;100.00;98987.00;4977898;28;20281;-85
2022/08/28 04:31:06;;;;;;;6.00;5.40;;;;;;;18.21;100.00;98993.53;5002351;28;20243;-85
2022/08/28 04:33:34;;;;;;;6.30;5.70;;;;;;;18.24;100.00;99001.13;4992602;28;20244;-86
2022/08/28 04:36:04;;;;;;;5.40;4.90;;;;;;;18.28;100.00;99012.22;4975951;28;20672;-83
2022/08/28 04:38:31;;;;;;;5.83;5.30;;;;;;;18.30;100.00;99020.84;5002814;28;20324;-84
2022/08/28 04:40:57;;;;;;;5.50;5.00;;;;;;;18.38;100.00;99023.75;5001737;28;20804;-84
2022/08/28 04:43:24;;;;;;;5.43;4.93;;;;;;;18.46;100.00;99034.00;4997489;28;20261;-83
2022/08/28 04:45:51;;;;;;;5.60;5.10;;;;;;;18.52;100.00;99037.50;4999611;28;20687;-86
2022/08/28 04:48:18;;;;;;;6.10;5.50;;;;;;;18.59;100.00;99048.03;4993913;28;20219;-83
2022/08/28 04:50:46;;;;;;;5.90;5.30;;;;;;;18.69;100.00;99045.22;4994020;28;20243;-83
2022/08/28 04:53:15;;;;;;;5.60;5.07;;;;;;;18.78;100.00;99049.72;5002564;28;20310;-84
2022/08/28 04:55:44;;;;;;;5.90;5.40;;;;;;;18.87;100.00;99058.06;4998575;28;20244;-83
2022/08/28 04:58:21;;;;;;;5.37;4.97;;;;;;;18.95;100.00;99056.59;4956474;28;20617;-83
2022/08/28 05:00:50;;;;;;;5.60;5.10;;;;;;;18.94;100.00;99066.69;4997389;28;20228;-84
2022/08/28 05:03:17;;;;;;;5.43;4.93;;;;;;;18.95;100.00;99062.03;4991302;28;20229;-83
2022/08/28 05:05:46;;;;;;;5.50;5.03;;;;;;;18.97;100.00;99060.66;4991969;28;20743;-83
2022/08/28 05:08:15;;;;;;;6.17;4.93;;;;;;;19.00;100.00;99064.69;4972817;28;20308;-84
2022/08/28 05:10:42;;;;;;;6.87;5.37;;;;;;;19.01;100.00;99058.19;4986580;28;20698;-84
2022/08/28 05:13:10;;;;;;;6.20;5.07;;;;;;;19.05;100.00;99067.34;4991397;28;20363;-83
2022/08/28 05:15:48;;;;;;;5.80;5.30;;;;;;;19.08;100.00;99062.19;4986573;28;20225;-83
2022/08/28 05:18:17;;;;;;;5.60;5.10;;;;;;;19.14;100.00;99062.91;4981070;28;20232;-83
2022/08/28 05:20:45;;;;;;;6.10;5.20;;;;;;;19.21;100.00;99071.53;4997937;28;20246;-83
2022/08/28 05:23:13;;;;;;;5.87;5.37;;;;;;;19.26;100.00;99066.03;4977620;28;20255;-84
2022/08/28 05:25:43;;;;;;;7.17;5.70;;;;;;;19.35;100.00;99065.13;4983344;28;20232;-83
2022/08/28 05:28:11;;;;;;;6.13;5.63;;;;;;;19.41;100.00;99068.56;4997546;28;20231;-84
2022/08/28 05:30:39;;;;;;;5.60;5.03;;;;;;;19.50;100.00;99063.34;4976268;28;20235;-83
2022/08/28 05:33:07;;;;;;;6.60;5.63;;;;;;;19.60;100.00;99068.63;4982228;28;20651;-83
2022/08/28 05:35:37;;;;;;;5.20;4.80;;;;;;;19.65;100.00;99065.84;4987613;28;20312;-84
2022/08/28 05:38:04;;;;;;;5.83;5.23;;;;;;;19.76;100.00;99079.00;4993808;28;20242;-83
2022/08/28 05:40:31;;;;;;;6.57;5.40;;;;;;;19.84;100.00;99080.25;4996838;28;20235;-84
2022/08/28 05:42:58;;;;;;;6.10;5.47;;;;;;;19.98;100.00;99074.88;5001125;28;20236;-81
2022/08/28 05:45:24;;;;;;;5.60;5.10;;;;;;;20.17;100.00;99078.41;4980853;28;20763;-83
2022/08/28 05:47:51;;;;;;;5.60;4.63;;;;;;;20.37;100.00;99074.59;4998597;28;20250;-83
2022/08/28 05:50:18;;;;;;;4.97;4.47;;;;;;;20.50;100.00;99084.72;4992520;28;21837;-83
2022/08/28 05:52:45;;;;;;;5.90;4.77;;;;;;;20.62;100.00;99083.13;4993491;28;20712;-85
2022/08/28 05:55:12;;;;;;;5.30;4.83;;;;;;;20.74;100.00;99085.41;4998982;28;20734;-82
2022/08/28 05:57:39;;;;;;;5.47;4.97;;;;;;;20.84;100.00;99084.41;4991525;28;20346;-83
2022/08/28 06:00:11;;;;;;;5.30;4.75;;;;;;;20.91;100.00;99084.81;4994514;28;20327;-82
2022/08/28 06:02:41;;;;;;;7.80;5.00;;;;;;;21.01;100.00;99084.63;4981618;28;20243;-83
2022/08/28 06:05:08;;;;;;;6.57;4.50;;;;;;;21.08;100.00;99085.06;4992633;28;20240;-85
2022/08/28 06:07:39;;;;;;;5.38;4.88;;;;;;;21.18;100.00;99089.53;4975303;28;20235;-82
2022/08/28 06:10:06;;;;;;;5.30;4.80;;;;;;;21.21;100.00;99086.19;4989828;28;20314;-85
2022/08/28 06:12:36;;;;;;;5.85;4.75;;;;;;;21.28;100.00;99094.75;4990678;28;20326;-84
2022/08/28 06:15:04;;;;;;;5.30;4.72;;;;;;;21.30;100.00;99087.09;4991118;28;20306;-82
2022/08/28 06:17:31;;;;;;;5.55;5.05;;;;;;;21.34;100.00;99091.66;4999818;28;20263;-85
2022/08/28 06:19:57;;;;;;;6.47;4.93;;;;;;;21.42;100.00;99084.66;4992162;28;20243;-83
2022/08/28 06:22:24;;;;;;;6.18;5.15;;;;;;;21.48;100.00;99089.72;4991489;28;20810;-84
2022/08/28 06:24:50;;;;;;;5.80;5.30;;;;;;;21.54;100.00;99087.72;4996381;28;20231;-82
2022/08/28 06:27:17;;;;;;;5.45;5.05;;;;;;;21.61;100.00;99085.38;4992053;28;20246;-83
2022/08/28 06:29:44;;;;;;;6.53;5.20;;;;;;;21.68;100.00;99087.69;4991937;28;20230;-84
2022/08/28 06:32:12;;;;;;;5.57;4.95;;;;;;;21.71;100.00;99087.06;4996107;28;20231;-83
2022/08/28 06:34:38;;;;;;;5.55;5.00;;;;;;;21.76;100.00;99090.50;4972424;28;20227;-84
2022/08/28 06:37:06;;;;;;;5.03;4.63;;;;;;;21.84;100.00;99089.78;4991704;28;20857;-84
2022/08/28 06:39:33;;;;;;;5.72;5.22;;;;;;;22.00;100.00;99092.19;4996154;28;20309;-84
2022/08/28 06:42:00;;;;;;;5.00;4.60;;;;;;;22.20;100.00;99095.28;4991351;28;20239;-84
2022/08/28 06:44:26;;;;;;;4.70;4.30;;;;;;;22.46;100.00;99098.19;4990606;28;20250;-85
2022/08/28 06:46:53;;;;;;;7.00;4.68;;;;;;;22.66;100.00;99099.63;4982445;28;20719;-84
2022/08/28 06:49:21;;;;;;;4.70;4.30;;;;;;;22.82;100.00;99096.22;4990358;28;20317;-83
2022/08/28 06:51:47;;;;;;;4.90;4.50;;;;;;;23.15;100.00;99098.63;4993915;28;20231;-83
2022/08/28 06:54:16;;;;;;;4.75;4.22;;;;;;;23.51;100.00;99095.75;4992885;28;20332;-84
2022/08/28 06:56:49;;;;;;;5.30;4.90;;;;;;;23.83;100.00;99102.75;4991311;28;20259;-84
2022/08/28 06:59:16;;;;;;;5.35;4.85;;;;;;;23.99;100.00;99103.88;4996756;28;20251;-83
2022/08/28 07:01:42;;;;;;;5.43;4.93;;;;;;;24.31;100.00;99108.91;4990908;28;20329;-83
2022/08/28 07:04:11;;;;;;;5.35;4.85;;;;;;;24.63;100.00;99101.34;4991369;28;20232;-83
2022/08/28 07:06:39;;;;;;;4.85;4.45;;;;;;;24.66;98.12;99111.63;4998756;28;20254;-83
2022/08/28 07:09:08;;;;;;;5.25;4.65;;;;;;;24.60;100.00;99113.72;4990789;28;20292;-84
2022/08/28 07:11:35;;;;;;;4.72;4.43;;;;;;;24.79;96.74;99113.38;4975061;28;20253;-83
2022/08/28 07:14:02;;;;;;;4.70;4.22;;;;;;;24.86;96.43;99110.97;4993560;28;20241;-83
2022/08/28 07:16:32;;;;;;;5.05;4.53;;;;;;;24.85;96.26;99104.66;4996498;28;20244;-83
2022/08/28 07:18:58;;;;;;;4.65;4.30;;;;;;;25.03;95.10;99104.66;4992954;28;20222;-83
2022/08/28 07:21:25;;;;;;;4.82;4.45;;;;;;;25.23;92.93;99112.97;4990252;28;20770;-82
2022/08/28 07:23:53;;;;;;;5.03;4.60;;;;;;;25.27;88.78;99111.19;4996950;28;20245;-83
2022/08/28 07:26:22;;;;;;;4.90;4.50;;;;;;;25.27;89.48;99107.63;4992033;28;20232;-83
2022/08/28 07:28:50;;;;;;;6.15;5.18;;;;;;;25.46;88.46;99108.03;4975286;28;20240;-83
2022/08/28 07:31:25;;;;;;;6.70;5.13;;;;;;;25.62;87.08;99109.09;4991762;28;20325;-86
2022/08/28 07:33:53;;;;;;;5.22;4.82;;;;;;;25.83;86.26;99117.38;4989019;28;20231;-84
2022/08/28 07:36:23;;;;;;;5.20;4.68;;;;;;;26.13;83.19;99113.44;4988319;28;20233;-86
2022/08/28 07:38:56;;;;;;;5.30;4.78;;;;;;;26.42;80.19;99118.09;4971080;28;20235;-85
2022/08/28 07:41:26;;;;;;;5.03;4.50;;;;;;;26.89;76.02;99121.38;4975382;28;20273;-85
2022/08/28 07:46:39;;;;;;;5.10;4.57;;;;;;;27.47;70.38;99114.75;4993265;28;20226;-85
2022/08/28 07:49:07;;;;;;;4.72;4.38;;;;;;;27.79;68.65;99121.28;4973618;28;20306;-87
2022/08/28 07:51:34;;;;;;;5.55;4.90;;;;;;;28.03;67.93;99118.50;4975153;28;20326;-85
2022/08/28 07:54:02;;;;;;;5.07;4.65;;;;;;;28.16;65.41;99127.56;4991519;28;20771;-84
2022/08/28 07:56:30;;;;;;;5.22;4.57;;;;;;;28.43;63.55;99129.56;4974766;28;20354;-86
2022/08/28 07:58:57;;;;;;;5.30;4.53;;;;;;;28.62;62.38;99128.91;4991726;28;20718;-84
2022/08/28 08:01:26;;;;;;;5.10;4.63;;;;;;;28.62;60.62;99123.41;4954796;28;20698;-84
2022/08/28 08:03:55;;;;;;;5.53;5.03;;;;;;;28.52;62.10;99131.34;4985906;28;20232;-84
2022/08/28 08:06:30;;;;;;;5.20;4.70;;;;;;;28.26;62.92;99137.31;4986418;28;20235;-84
2022/08/28 08:09:01;;;;;;;5.07;4.68;;;;;;;28.47;60.91;99137.91;4988911;28;20231;-84
2022/08/28 08:11:28;;;;;;;5.70;5.20;;;;;;;28.23;62.06;99140.75;4962376;28;20737;-84
2022/08/28 08:14:04;;;;;;;5.93;5.32;;;;;;;27.69;63.41;99141.00;4996074;28;20326;-83
2022/08/28 08:16:33;;;;;;;5.90;5.40;;;;;;;27.50;64.07;99135.28;4976429;28;20239;-85
2022/08/28 08:19:00;;;;;;;5.90;5.40;;;;;;;27.38;65.14;99130.56;4993832;28;20235;-84
2022/08/28 08:21:27;;;;;;;5.95;5.45;;;;;;;27.44;66.72;99142.09;4991215;28;20235;-84
2022/08/28 08:23:56;;;;;;;6.60;5.90;;;;;;;27.48;65.31;99132.84;4991251;28;20794;-85
2022/08/28 08:26:26;;;;;;;6.03;5.53;;;;;;;26.90;68.88;99135.94;4975466;28;20231;-85
2022/08/28 08:28:53;;;;;;;5.60;5.20;;;;;;;26.97;69.39;99134.22;4995891;28;20286;-84
2022/08/28 08:31:23;;;;;;;6.00;5.30;;;;;;;27.01;70.89;99137.13;4976617;28;20330;-84
2022/08/28 08:33:52;;;;;;;6.75;6.05;;;;;;;25.99;78.40;99145.84;4994872;28;20228;-84
2022/08/28 08:36:21;;;;;;;6.03;5.57;;;;;;;26.02;82.11;99138.91;4982080;28;20325;-85
2022/08/28 08:38:48;;;;;;;6.20;5.70;;;;;;;26.78;77.81;99144.13;4938302;28;1181792;-85
2022/08/28 08:41:30;;;;;;;6.30;5.80;;;;;;;27.43;73.96;99141.34;5000635;28;20238;-85
2022/08/28 08:44:06;;;;;;;6.53;6.03;;;;;;;27.70;67.73;99145.38;4979433;28;20251;-86
2022/08/28 08:47:05;;;;;;;6.82;6.20;;;;;;;28.01;66.28;99147.53;4992187;28;20270;-85
2022/08/28 08:49:40;;;;;;;7.32;6.63;;;;;;;27.21;69.87;99144.50;4997017;28;20317;-85
2022/08/28 08:52:10;;;;;;;7.63;7.03;;;;;;;27.89;65.29;99148.34;4995880;28;20236;-86
2022/08/28 08:54:47;;;;;;;6.97;6.38;;;;;;;27.16;70.91;99151.00;4993864;28;20671;-86
2022/08/28 08:57:14;;;;;;;7.75;7.15;;;;;;;27.28;69.65;99147.50;4983010;28;20235;-85
2022/08/28 08:59:41;;;;;;;8.35;7.57;;;;;;;27.15;69.47;99157.69;4997206;28;20242;-85
2022/08/28 09:02:16;;;;;;;8.63;7.93;;;;;;;27.43;66.66;99152.34;4992264;28;20243;-85
2022/08/28 09:04:49;;;;;;;8.70;7.90;;;;;;;26.96;68.32;99154.66;4982867;28;20235;-84
2022/08/28 09:07:19;;;;;;;9.00;8.30;;;;;;;27.51;68.81;99154.19;4992082;28;20235;-85
2022/08/28 09:09:49;;;;;;;8.68;7.97;;;;;;;27.53;67.62;99160.16;4991584;28;20224;-84
2022/08/28 09:12:18;;;;;;;9.05;8.25;;;;;;;27.13;70.86;99150.91;4985047;28;20236;-85
2022/08/28 09:15:10;;;;;;;9.80;8.85;;;;;;;27.67;68.26;99159.03;4984217;28;20318;-85
2022/08/28 09:17:46;;;;;;;8.75;7.95;;;;;;;27.95;67.59;99157.97;4969316;28;20310;-85
2022/08/28 09:20:20;;;;;;;9.30;8.48;;;;;;;27.97;67.50;99163.94;4982623;28;20223;-85
2022/08/28 09:22:58;;;;;;;9.75;8.95;;;;;;;27.10;70.43;99152.38;4969486;28;20223;-86
2022/08/28 09:25:43;;;;;;;9.65;8.80;;;;;;;27.53;68.97;99159.34;4989794;28;20774;-86
2022/08/28 09:28:14;;;;;;;9.45;8.65;;;;;;;27.43;68.24;99152.34;4986341;28;20273;-85
2022/08/28 09:30:42;;;;;;;9.65;8.80;;;;;;;27.21;71.32;99146.44;4970635;28;20262;-85
2022/08/28 09:33:09;;;;;;;9.88;9.07;;;;;;;26.89;73.54;99145.31;4985995;28;20219;-85
2022/08/28 09:35:36;;;;;;;10.50;9.55;;;;;;;26.57;75.13;99141.41;4992420;28;20235;-86
2022/08/28 09:38:17;;;;;;;9.65;8.85;;;;;;;27.06;73.55;99145.94;4990915;28;20317;-83
2022/08/28 09:43:30;;;;;;;9.25;8.45;;;;;;;27.14;71.60;99145.06;4993024;28;20241;-86
2022/08/28 09:45:58;;;;;;;9.13;8.20;;;;;;;26.67;75.51;99151.97;4975347;28;20267;-85
2022/08/28 09:48:39;;;;;;;9.07;8.35;;;;;;;26.92;72.96;99156.44;4992499;28;20231;-83
2022/08/28 09:51:09;;;;;;;8.27;7.57;;;;;;;26.99;72.39;99153.16;4990397;28;20238;-84
2022/08/28 09:53:55;;;;;;;8.52;7.82;;;;;;;27.33;71.29;99149.22;4943376;28;20238;-84
2022/08/28 09:56:33;;;;;;;8.13;7.32;;;;;;;26.91;73.06;99146.59;4984658;28;20231;-84
2022/08/28 09:59:05;;;;;;;7.63;7.03;;;;;;;27.05;72.66;99149.84;4972651;28;20226;-84
2022/08/28 10:01:37;;;;;;;7.57;6.90;;;;;;;26.78;73.75;99152.38;4990331;28;20254;-83
2022/08/28 10:04:10;;;;;;;7.82;7.03;;;;;;;26.64;75.28;99152.66;4986475;28;20248;-85
2022/08/28 10:06:37;;;;;;;7.20;6.60;;;;;;;26.71;75.74;99155.66;4989303;28;20235;-85
2022/08/28 10:09:16;;;;;;;7.03;6.35;;;;;;;26.96;75.08;99151.09;4987293;28;20266;-84
2022/08/28 10:11:52;;;;;;;7.13;6.63;;;;;;;27.66;71.54;99149.16;4957224;28;20590;-85
2022/08/28 10:14:31;;;;;;;6.78;6.20;;;;;;;27.15;72.41;99137.63;4975431;28;20257;-83
2022/08/28 10:17:36;;;;;;;6.15;5.75;;;;;;;27.31;72.72;99132.25;4991903;28;20450;-84
2022/08/28 10:20:19;;;;;;;6.25;5.75;;;;;;;27.77;68.13;99140.09;4984818;28;20285;-84
2022/08/28 10:23:03;;;;;;;5.40;5.00;;;;;;;28.01;65.79;99133.75;4989783;28;20606;-85
2022/08/28 10:25:40;;;;;;;5.30;4.90;;;;;;;27.96;63.62;99134.00;4990376;28;20231;-86
2022/08/28 10:28:17;;;;;;;5.75;5.30;;;;;;;27.72;65.41;99129.31;4990594;28;20247;-85
2022/08/28 10:31:05;;;;;;;5.75;5.30;;;;;;;27.94;64.81;99142.63;4958387;28;20291;-86
2022/08/28 10:33:57;;;;;;;4.47;4.18;;;;;;;27.68;66.01;99136.66;4961894;28;20603;-86
2022/08/28 10:36:28;;;;;;;4.43;4.03;;;;;;;27.22;67.63;99146.09;4995538;28;20863;-86
2022/08/28 10:39:09;;;;;;;2.80;2.60;;;;;;;26.80;69.14;99141.81;4967057;28;20317;-86
2022/08/28 10:41:42;;;;;;;2.58;2.38;;;;;;;27.14;69.22;99142.31;4982060;28;20246;-86
2022/08/28 10:44:14;;;;;;;2.45;2.25;;;;;;;27.28;66.96;99155.75;4976697;28;21003;-86
2022/08/28 10:46:43;;;;;;;2.20;2.03;;;;;;;27.01;66.69;99145.38;4995331;28;20243;-86
2022/08/28 10:49:26;;;;;;;2.30;2.20;;;;;;;27.21;67.39;99149.19;4958876;28;20227;-87
2022/08/28 10:52:06;;;;;;;2.15;2.00;;;;;;;27.29;66.13;99140.06;4955627;28;20243;-86
2022/08/28 10:54:43;;;;;;;2.30;2.20;;;;;;;27.60;65.69;99145.84;4987791;28;20234;-86
2022/08/28 10:57:22;;;;;;;2.30;2.10;;;;;;;28.08;63.29;99152.47;4973148;28;20286;-86
2022/08/28 10:59:51;;;;;;;1.80;1.70;;;;;;;28.69;59.74;99151.16;4957162;28;20318;-86
2022/08/28 11:02:21;;;;;;;2.00;1.90;;;;;;;28.04;63.70;99152.34;4996857;28;20748;-84
2022/08/28 11:04:48;;;;;;;1.73;1.63;;;;;;;28.94;59.20;99149.13;4988667;28;20306;-86
2022/08/28 11:07:28;;;;;;;1.85;1.75;;;;;;;28.88;60.59;99148.56;4990060;28;20239;-86
2022/08/28 11:09:55;;;;;;;1.85;1.75;;;;;;;29.07;57.12;99150.66;4988474;28;20238;-86
2022/08/28 11:12:35;;;;;;;1.80;1.70;;;;;;;28.99;55.46;99142.53;4967174;28;20245;-85
2022/08/28 11:15:21;;;;;;;1.95;1.85;;;;;;;29.18;55.51;99143.47;4996940;28;20323;-87
2022/08/28 11:17:49;;;;;;;3.63;2.13;;;;;;;29.23;54.49;99153.44;4979688;28;20235;-86
2022/08/28 11:20:24;;;;;;;2.38;2.25;;;;;;;28.85;54.27;99152.03;4963680;28;20318;-86
2022/08/28 11:22:51;;;;;;;2.33;2.13;;;;;;;27.48;61.93;99137.56;4982083;28;20257;-86
2022/08/28 11:25:23;;;;;;;2.80;2.60;;;;;;;28.03;58.25;99148.00;4996635;28;20643;-86
2022/08/28 11:28:22;;;;;;;2.53;2.33;;;;;;;28.14;56.92;99142.81;4975943;28;20243;-86
2022/08/28 11:31:04;;;;;;;2.60;2.40;;;;;;;28.41;55.34;99147.59;4999123;28;20274;-86
2022/08/28 11:33:49;;;;;;;2.30;2.20;;;;;;;28.24;57.11;99156.13;4993345;28;20223;-86
2022/08/28 11:36:18;;;;;;;2.35;2.25;;;;;;;27.70;59.40;99148.13;4986277;28;20283;-86
2022/08/28 11:38:45;;;;;;;3.30;3.10;;;;;;;27.86;59.39;99151.78;5004104;28;20231;-86
2022/08/28 11:41:13;;;;;;;3.03;2.83;;;;;;;27.89;59.39;99151.09;4994219;28;20706;-85
2022/08/28 11:43:44;;;;;;;3.13;2.92;;;;;;;27.81;60.55;99156.75;5005382;28;20601;-86
2022/08/28 11:46:24;;;;;;;3.38;2.90;;;;;;;27.26;62.20;99143.47;4961997;28;20310;-85
2022/08/28 11:48:53;;;;;;;3.03;2.60;;;;;;;27.44;60.56;99139.34;4975306;28;20240;-86
2022/08/28 11:51:34;;;;;;;3.20;2.70;;;;;;;27.28;62.28;99139.25;4968147;28;20314;-85